Time;durP1;ratioP1;P1;durP2;ratioP2;P2;SDS_P1;SDS_P2;PMS_P1;PMS_P2;Temp;Humidity;BMP_temperature;BMP_pressure;BME280_temperature;BME280_humidity;BME280_pressure;Samples;Min_cycle;Max_cycle;Signal;HPM_P1;HPM_P2
2022/04/23 00:00:53;;;;;;;11.93;10.77;;;;;;;;;;4932030;29;20199;-73
2022/04/23 00:03:21;;;;;;;10.45;9.30;;;;;;;;;;4932751;29;20195;-73
2022/04/23 00:05:48;;;;;;;13.55;11.95;;;;;;;;;;4929360;29;20586;-73
2022/04/23 00:08:15;;;;;;;11.77;10.57;;;;;;;;;;4931605;29;20203;-74
2022/04/23 00:10:43;;;;;;;11.88;10.63;;;;;;;;;;4931465;29;20191;-73
2022/04/23 00:13:10;;;;;;;13.43;10.80;;;;;;;;;;4931998;29;20203;-72
2022/04/23 00:15:38;;;;;;;12.35;10.00;;;;;;;;;;4940000;29;20226;-72
2022/04/23 00:18:06;;;;;;;10.90;9.55;;;;;;;;;;4931114;29;20674;-72
2022/04/23 00:20:35;;;;;;;11.32;10.13;;;;;;;;;;4926517;29;20250;-72
2022/04/23 00:23:02;;;;;;;13.13;11.13;;;;;;;;;;4930044;29;20210;-73
2022/04/23 00:25:30;;;;;;;14.27;12.73;;;;;;;;;;4930011;29;20223;-73
2022/04/23 00:27:57;;;;;;;13.70;10.80;;;;;;;;;;4933164;29;20211;-73
2022/04/23 00:30:24;;;;;;;21.05;11.85;;;;;;;;;;4930539;29;20204;-72
2022/04/23 00:32:51;;;;;;;11.18;10.20;;;;;;;;;;4919899;29;20567;-73
2022/04/23 00:35:19;;;;;;;13.85;12.15;;;;;;;;;;4927739;29;20218;-72
2022/04/23 00:37:47;;;;;;;11.13;10.13;;;;;;;;;;4941335;29;20207;-72
2022/04/23 00:40:17;;;;;;;12.27;11.05;;;;;;;;;;4941617;29;20222;-73
2022/04/23 00:42:52;;;;;;;11.73;10.52;;;;;;;;;;4936266;29;20278;-73
2022/04/23 00:45:19;;;;;;;11.55;10.30;;;;;;;;;;4929750;29;20218;-73
2022/04/23 00:47:46;;;;;;;10.45;9.40;;;;;;;;;;4935231;29;20460;-72
2022/04/23 00:50:13;;;;;;;11.98;10.75;;;;;;;;;;4931180;29;20208;-73
2022/04/23 00:52:40;;;;;;;13.05;11.68;;;;;;;;;;4934657;29;20207;-72
2022/04/23 00:55:10;;;;;;;10.40;9.40;;;;;;;;;;4944062;29;20199;-73
2022/04/23 00:57:37;;;;;;;10.75;9.70;;;;;;;;;;4942087;29;20209;-74
2022/04/23 01:00:06;;;;;;;14.75;10.10;;;;;;;;;;4928487;29;20231;-75
2022/04/23 01:02:33;;;;;;;11.40;10.30;;;;;;;;;;4930366;29;20270;-73
2022/04/23 01:05:01;;;;;;;13.23;10.63;;;;;;;;;;4931065;29;20203;-73
2022/04/23 01:07:28;;;;;;;12.25;11.05;;;;;;;;;;4943416;29;20192;-73
2022/04/23 01:09:55;;;;;;;10.13;9.13;;;;;;;;;;4935579;29;20203;-73
2022/04/23 01:12:23;;;;;;;12.15;10.68;;;;;;;;;;4935320;29;20678;-73
2022/04/23 01:15:00;;;;;;;10.98;9.88;;;;;;;;;;4927988;29;20570;-73
2022/04/23 01:17:27;;;;;;;12.77;11.48;;;;;;;;;;4933367;29;20203;-74
2022/04/23 01:19:54;;;;;;;12.02;10.70;;;;;;;;;;4931518;29;20603;-72
2022/04/23 01:22:24;;;;;;;12.90;10.90;;;;;;;;;;4933617;29;20210;-72
2022/04/23 01:24:51;;;;;;;11.20;10.10;;;;;;;;;;4935228;29;20195;-73
2022/04/23 01:27:19;;;;;;;12.23;10.98;;;;;;;;;;4944876;29;20198;-71
2022/04/23 01:29:46;;;;;;;11.02;9.93;;;;;;;;;;4937737;29;20234;-71
2022/04/23 01:32:13;;;;;;;13.27;11.40;;;;;;;;;;4934118;29;20213;-72
2022/04/23 01:34:40;;;;;;;12.98;11.05;;;;;;;;;;4929643;29;20657;-73
2022/04/23 01:37:08;;;;;;;12.52;11.05;;;;;;;;;;4938150;29;20210;-73
2022/04/23 01:39:36;;;;;;;12.20;10.10;;;;;;;;;;4938435;28;20587;-72
2022/04/23 01:42:04;;;;;;;13.70;12.30;;;;;;;;;;4938627;29;20191;-74
2022/04/23 01:44:31;;;;;;;13.55;12.10;;;;;;;;;;4929524;29;20197;-73
2022/04/23 01:46:58;;;;;;;13.38;11.27;;;;;;;;;;4933874;29;20218;-71
2022/04/23 01:49:25;;;;;;;11.68;10.48;;;;;;;;;;4935198;29;20203;-71
2022/04/23 01:51:52;;;;;;;13.63;12.20;;;;;;;;;;4935008;29;20203;-72
2022/04/23 01:54:19;;;;;;;12.50;10.82;;;;;;;;;;4929125;29;20200;-72
2022/04/23 01:56:48;;;;;;;12.55;11.35;;;;;;;;;;4935109;29;20257;-72
2022/04/23 01:59:15;;;;;;;13.70;11.63;;;;;;;;;;4935771;29;20207;-71
2022/04/23 02:01:42;;;;;;;12.30;10.82;;;;;;;;;;4930106;29;20578;-71
2022/04/23 02:04:09;;;;;;;14.35;12.10;;;;;;;;;;4933773;29;20195;-71
2022/04/23 02:06:36;;;;;;;14.68;11.02;;;;;;;;;;4929601;29;20226;-73
2022/04/23 02:09:04;;;;;;;11.60;10.50;;;;;;;;;;4944313;29;20634;-73
2022/04/23 02:11:31;;;;;;;11.93;10.75;;;;;;;;;;4927998;29;20200;-73
2022/04/23 02:14:02;;;;;;;15.48;11.70;;;;;;;;;;4934974;29;20199;-73
2022/04/23 02:16:29;;;;;;;14.18;12.00;;;;;;;;;;4933068;29;20591;-73
2022/04/23 02:18:57;;;;;;;12.73;11.32;;;;;;;;;;4934840;29;20226;-73
2022/04/23 02:21:24;;;;;;;12.38;10.25;;;;;;;;;;4934034;29;20670;-73
2022/04/23 02:23:53;;;;;;;12.18;10.93;;;;;;;;;;4933528;29;20211;-73
2022/04/23 02:26:20;;;;;;;12.98;11.57;;;;;;;;;;4940437;29;20227;-74
2022/04/23 02:28:48;;;;;;;12.63;11.25;;;;;;;;;;4928554;29;20207;-74
2022/04/23 02:31:16;;;;;;;12.65;11.40;;;;;;;;;;4920166;29;20195;-74
2022/04/23 02:33:44;;;;;;;13.18;10.93;;;;;;;;;;4930521;29;20187;-72
2022/04/23 02:36:11;;;;;;;12.40;11.13;;;;;;;;;;4935828;29;20289;-73
2022/04/23 02:38:40;;;;;;;10.88;9.80;;;;;;;;;;4941857;28;20631;-73
2022/04/23 02:41:07;;;;;;;12.40;11.10;;;;;;;;;;4940186;29;20583;-73
2022/04/23 02:43:35;;;;;;;10.90;9.75;;;;;;;;;;4931562;29;20195;-73
2022/04/23 02:46:02;;;;;;;14.25;12.95;;;;;;;;;;4935380;29;20218;-73
2022/04/23 02:48:31;;;;;;;11.38;10.27;;;;;;;;;;4929052;29;20191;-73
2022/04/23 02:50:58;;;;;;;11.30;10.30;;;;;;;;;;4927285;29;20203;-74
2022/04/23 02:53:26;;;;;;;12.57;11.05;;;;;;;;;;4932978;29;20199;-74
2022/04/23 02:55:56;;;;;;;16.67;11.90;;;;;;;;;;4931658;29;20206;-75
2022/04/23 02:58:25;;;;;;;12.80;11.10;;;;;;;;;;4940050;29;20202;-74
2022/04/23 03:00:53;;;;;;;13.77;11.30;;;;;;;;;;4926768;29;20232;-74
2022/04/23 03:03:21;;;;;;;12.35;11.00;;;;;;;;;;4932043;29;20843;-73
2022/04/23 03:05:53;;;;;;;11.27;10.07;;;;;;;;;;4939453;29;20218;-73
2022/04/23 03:08:23;;;;;;;12.75;11.38;;;;;;;;;;4947442;29;20221;-73
2022/04/23 03:10:50;;;;;;;16.55;12.85;;;;;;;;;;4937337;29;20214;-74
2022/04/23 03:13:17;;;;;;;14.20;11.77;;;;;;;;;;4925540;29;20195;-73
2022/04/23 03:15:46;;;;;;;14.95;12.30;;;;;;;;;;4927636;29;20206;-73
2022/04/23 03:18:14;;;;;;;12.13;10.88;;;;;;;;;;4931716;29;20197;-73
2022/04/23 03:20:41;;;;;;;14.65;12.80;;;;;;;;;;4933797;29;20202;-73
2022/04/23 03:23:11;;;;;;;13.20;11.80;;;;;;;;;;4933448;29;20226;-73
2022/04/23 03:25:40;;;;;;;13.40;12.10;;;;;;;;;;4933076;29;20202;-74
2022/04/23 03:28:07;;;;;;;13.07;11.73;;;;;;;;;;4931128;29;20201;-73
2022/04/23 03:30:34;;;;;;;15.23;13.45;;;;;;;;;;4930560;29;20961;-73
2022/04/23 03:33:01;;;;;;;12.38;11.18;;;;;;;;;;4921862;29;20195;-73
2022/04/23 03:35:28;;;;;;;13.15;11.82;;;;;;;;;;4933694;29;20209;-73
2022/04/23 03:37:56;;;;;;;12.50;11.32;;;;;;;;;;4941077;29;20688;-74
2022/04/23 03:40:25;;;;;;;15.50;13.85;;;;;;;;;;4933391;28;20286;-74
2022/04/23 03:42:52;;;;;;;14.07;12.68;;;;;;;;;;4927756;29;20206;-74
2022/04/23 03:45:19;;;;;;;11.07;10.00;;;;;;;;;;4930022;29;20206;-74
2022/04/23 03:47:47;;;;;;;13.30;11.90;;;;;;;;;;4915945;29;20254;-75
2022/04/23 03:50:14;;;;;;;14.55;13.15;;;;;;;;;;4931588;29;20202;-75
2022/04/23 03:52:41;;;;;;;14.75;13.27;;;;;;;;;;4932711;29;20198;-73
2022/04/23 03:55:09;;;;;;;13.68;12.27;;;;;;;;;;4933326;29;20194;-74
2022/04/23 03:57:45;;;;;;;16.27;14.75;;;;;;;;;;4932192;29;20570;-73
2022/04/23 04:00:13;;;;;;;16.67;14.25;;;;;;;;;;4928585;29;20665;-74
2022/04/23 04:02:40;;;;;;;15.57;13.93;;;;;;;;;;4930362;29;20229;-73
2022/04/23 04:05:07;;;;;;;14.45;13.05;;;;;;;;;;4938345;29;20717;-74
2022/04/23 04:07:34;;;;;;;17.45;15.60;;;;;;;;;;4944463;29;20234;-73
2022/04/23 04:10:02;;;;;;;14.77;13.25;;;;;;;;;;4935640;29;20221;-74
2022/04/23 04:12:29;;;;;;;17.75;14.15;;;;;;;;;;4927943;29;20195;-74
2022/04/23 04:14:58;;;;;;;14.38;12.88;;;;;;;;;;4934750;29;20206;-75
2022/04/23 04:17:26;;;;;;;15.45;13.85;;;;;;;;;;4933541;29;20265;-74
2022/04/23 04:19:53;;;;;;;14.10;12.63;;;;;;;;;;4933630;29;20655;-75
2022/04/23 04:22:22;;;;;;;15.90;14.20;;;;;;;;;;4934476;29;20226;-73
2022/04/23 04:24:49;;;;;;;17.48;15.57;;;;;;;;;;4936669;29;20207;-73
2022/04/23 04:27:16;;;;;;;15.75;14.25;;;;;;;;;;4933473;29;20227;-74
2022/04/23 04:29:44;;;;;;;17.40;15.65;;;;;;;;;;4926734;29;20282;-74
2022/04/23 04:32:13;;;;;;;16.40;14.75;;;;;;;;;;4928165;29;20231;-74
2022/04/23 04:34:40;;;;;;;16.48;14.88;;;;;;;;;;4934958;29;20677;-75
2022/04/23 04:37:08;;;;;;;15.20;13.70;;;;;;;;;;4938407;29;20655;-74
2022/04/23 04:39:35;;;;;;;15.57;14.07;;;;;;;;;;4939260;28;20222;-73
2022/04/23 04:42:02;;;;;;;15.90;14.20;;;;;;;;;;4935035;29;20302;-73
2022/04/23 04:44:29;;;;;;;17.08;14.93;;;;;;;;;;4929562;29;20202;-74
2022/04/23 04:46:56;;;;;;;14.75;13.25;;;;;;;;;;4933864;29;20226;-75
2022/04/23 04:49:25;;;;;;;16.60;14.93;;;;;;;;;;4938308;29;20205;-73
2022/04/23 04:51:53;;;;;;;15.30;13.80;;;;;;;;;;4933038;29;20201;-73
2022/04/23 04:54:21;;;;;;;16.00;14.40;;;;;;;;;;4926859;29;20195;-73
2022/04/23 04:56:48;;;;;;;16.80;15.25;;;;;;;;;;4934316;29;20206;-73
2022/04/23 04:59:15;;;;;;;17.20;14.93;;;;;;;;;;4939412;29;20198;-73
2022/04/23 05:01:42;;;;;;;16.15;14.68;;;;;;;;;;4930395;29;20199;-73
2022/04/23 05:04:09;;;;;;;16.52;14.75;;;;;;;;;;4932865;29;20199;-74
2022/04/23 05:06:38;;;;;;;17.55;15.70;;;;;;;;;;4932751;29;20226;-73
2022/04/23 05:09:05;;;;;;;16.98;14.70;;;;;;;;;;4935805;29;20674;-74
2022/04/23 05:11:32;;;;;;;17.38;15.45;;;;;;;;;;4934162;29;20191;-73
2022/04/23 05:13:59;;;;;;;18.23;16.02;;;;;;;;;;4927961;29;20217;-73
2022/04/23 05:16:26;;;;;;;18.30;16.40;;;;;;;;;;4933008;29;20206;-73
2022/04/23 05:18:53;;;;;;;16.67;14.98;;;;;;;;;;4934420;29;20199;-73
2022/04/23 05:21:20;;;;;;;17.55;15.75;;;;;;;;;;4929853;29;20214;-74
2022/04/23 05:23:48;;;;;;;19.73;16.00;;;;;;;;;;4934547;29;20210;-73
2022/04/23 05:26:16;;;;;;;19.27;16.83;;;;;;;;;;4935685;29;20203;-74
2022/04/23 05:28:43;;;;;;;20.45;18.52;;;;;;;;;;4927364;29;20218;-74
2022/04/23 05:31:10;;;;;;;23.50;18.77;;;;;;;;;;4934882;29;20210;-73
2022/04/23 05:33:38;;;;;;;20.42;18.25;;;;;;;;;;4931003;29;20209;-74
2022/04/23 05:36:06;;;;;;;22.35;20.20;;;;;;;;;;4931704;29;20199;-74
2022/04/23 05:38:34;;;;;;;22.88;20.48;;;;;;;;;;4932582;29;20203;-74
2022/04/23 05:41:03;;;;;;;20.00;17.40;;;;;;;;;;4929848;29;20773;-74
2022/04/23 05:43:30;;;;;;;20.55;18.35;;;;;;;;;;4936777;29;20225;-73
2022/04/23 05:45:59;;;;;;;19.38;16.45;;;;;;;;;;4935201;29;20199;-74
2022/04/23 05:48:26;;;;;;;18.73;16.83;;;;;;;;;;4932981;29;20226;-74
2022/04/23 05:50:54;;;;;;;19.58;17.75;;;;;;;;;;4930546;29;20191;-73
2022/04/23 05:53:21;;;;;;;19.52;17.42;;;;;;;;;;4928221;29;20222;-73
2022/04/23 05:55:49;;;;;;;16.95;15.32;;;;;;;;;;4937863;29;20543;-73
2022/04/23 05:58:17;;;;;;;15.98;14.32;;;;;;;;;;4935704;29;20207;-73
2022/04/23 06:00:44;;;;;;;17.38;15.68;;;;;;;;;;4929798;29;20191;-73
2022/04/23 06:03:12;;;;;;;19.77;17.77;;;;;;;;;;4925883;29;20292;-72
2022/04/23 06:05:39;;;;;;;19.27;17.35;;;;;;;;;;4940129;29;20194;-73
2022/04/23 06:08:07;;;;;;;21.02;17.13;;;;;;;;;;4942053;29;20249;-72
2022/04/23 06:10:34;;;;;;;19.10;17.17;;;;;;;;;;4939715;29;20701;-72
2022/04/23 06:13:01;;;;;;;17.67;15.85;;;;;;;;;;4930967;29;20207;-73
2022/04/23 06:15:29;;;;;;;16.70;15.07;;;;;;;;;;4931646;29;20199;-72
2022/04/23 06:17:56;;;;;;;18.88;16.90;;;;;;;;;;4940074;29;20209;-73
2022/04/23 06:20:23;;;;;;;19.83;17.33;;;;;;;;;;4924623;29;20211;-74
2022/04/23 06:22:51;;;;;;;21.73;16.92;;;;;;;;;;4934802;29;20199;-74
2022/04/23 06:25:18;;;;;;;19.50;17.50;;;;;;;;;;4933382;29;20210;-72
2022/04/23 06:27:45;;;;;;;19.60;17.48;;;;;;;;;;4927689;29;20223;-72
2022/04/23 06:30:12;;;;;;;17.90;16.10;;;;;;;;;;4939979;29;20194;-72
2022/04/23 06:32:41;;;;;;;19.60;17.15;;;;;;;;;;4929692;29;20654;-72
2022/04/23 06:35:08;;;;;;;19.52;17.45;;;;;;;;;;4936646;29;20198;-72
2022/04/23 06:37:39;;;;;;;18.02;16.13;;;;;;;;;;4930748;29;20293;-72
2022/04/23 06:40:06;;;;;;;18.83;16.92;;;;;;;;;;4928869;28;20297;-72
2022/04/23 06:42:33;;;;;;;18.90;16.83;;;;;;;;;;4928647;29;20195;-69
2022/04/23 06:45:00;;;;;;;20.30;18.10;;;;;;;;;;4927118;29;20214;-71
2022/04/23 06:47:27;;;;;;;21.13;19.05;;;;;;;;;;4920763;29;20224;-71
2022/04/23 06:49:57;;;;;;;19.77;17.27;;;;;;;;;;4919403;29;20211;-71
2022/04/23 06:52:24;;;;;;;18.60;16.58;;;;;;;;;;4929133;29;20206;-71
2022/04/23 06:54:52;;;;;;;18.45;16.55;;;;;;;;;;4930511;29;20210;-70
2022/04/23 06:57:19;;;;;;;19.83;17.70;;;;;;;;;;4932281;29;20254;-73
2022/04/23 06:59:46;;;;;;;20.00;18.00;;;;;;;;;;4933843;29;20205;-73
2022/04/23 07:02:13;;;;;;;19.90;17.88;;;;;;;;;;4930683;29;20206;-73
2022/04/23 07:04:40;;;;;;;21.52;19.38;;;;;;;;;;4934718;29;20217;-72
2022/04/23 07:07:10;;;;;;;19.30;17.17;;;;;;;;;;4925597;29;20728;-71
2022/04/23 07:09:37;;;;;;;18.10;16.27;;;;;;;;;;4929172;29;20194;-69
2022/04/23 07:12:05;;;;;;;18.15;16.33;;;;;;;;;;4932564;29;20682;-70
2022/04/23 07:14:32;;;;;;;23.27;17.90;;;;;;;;;;4926428;29;20195;-70
2022/04/23 07:17:00;;;;;;;20.30;17.92;;;;;;;;;;4925416;29;20734;-73
2022/04/23 07:19:27;;;;;;;18.80;16.88;;;;;;;;;;4923278;29;20483;-72
2022/04/23 07:21:54;;;;;;;20.00;17.88;;;;;;;;;;4925387;29;20206;-74
2022/04/23 07:24:22;;;;;;;19.90;17.90;;;;;;;;;;4924221;29;20203;-71
2022/04/23 07:26:49;;;;;;;18.77;16.85;;;;;;;;;;4924702;29;20230;-73
2022/04/23 07:29:16;;;;;;;21.02;18.83;;;;;;;;;;4927429;29;20218;-72
2022/04/23 07:31:44;;;;;;;21.00;18.02;;;;;;;;;;4925638;29;20202;-72
2022/04/23 07:39:41;;;;;;;18.60;16.58;;;;;;;;;;4922113;29;20254;-69
2022/04/23 07:42:08;;;;;;;21.48;19.00;;;;;;;;;;4927446;29;20290;-70
2022/04/23 07:44:36;;;;;;;20.00;17.90;;;;;;;;;;4932227;29;20322;-70
2022/04/23 07:47:05;;;;;;;18.50;16.23;;;;;;;;;;4932390;29;20194;-69
2022/04/23 07:49:32;;;;;;;20.08;17.60;;;;;;;;;;4929737;29;20227;-69
2022/04/23 07:51:59;;;;;;;22.17;19.90;;;;;;;;;;4932727;29;20222;-70
2022/04/23 07:54:26;;;;;;;22.92;19.65;;;;;;;;;;4939828;29;20707;-69
2022/04/23 07:56:55;;;;;;;23.42;20.95;;;;;;;;;;4938193;29;20581;-69
2022/04/23 07:59:23;;;;;;;19.08;17.13;;;;;;;;;;4927085;29;20669;-71
2022/04/23 08:01:50;;;;;;;21.52;19.27;;;;;;;;;;4926659;29;20286;-73
2022/04/23 08:04:17;;;;;;;18.52;16.58;;;;;;;;;;4924305;29;20282;-73
2022/04/23 08:06:44;;;;;;;22.60;20.23;;;;;;;;;;4927238;29;20206;-73
2022/04/23 08:09:11;;;;;;;19.63;17.10;;;;;;;;;;4927526;29;20222;-73
2022/04/23 08:11:38;;;;;;;19.05;17.05;;;;;;;;;;4927653;29;20210;-73
2022/04/23 08:14:06;;;;;;;20.23;18.05;;;;;;;;;;4923678;29;20222;-73
2022/04/23 08:16:34;;;;;;;20.90;17.45;;;;;;;;;;4926088;29;20199;-73
2022/04/23 08:19:01;;;;;;;20.70;18.10;;;;;;;;;;4925985;29;20229;-72
2022/04/23 08:21:28;;;;;;;20.48;17.90;;;;;;;;;;4927231;29;20455;-72
2022/04/23 08:23:55;;;;;;;19.00;17.05;;;;;;;;;;4927710;29;20214;-72
2022/04/23 08:26:22;;;;;;;19.30;17.40;;;;;;;;;;4930534;29;20222;-71
2022/04/23 08:31:35;;;;;;;21.48;19.20;;;;;;;;;;4935465;29;20206;-72
2022/04/23 08:34:02;;;;;;;20.35;18.17;;;;;;;;;;4934830;29;20200;-72
2022/04/23 08:36:30;;;;;;;18.40;16.50;;;;;;;;;;4931566;29;20782;-72
2022/04/23 08:39:00;;;;;;;18.77;16.92;;;;;;;;;;4932107;29;20884;-72
2022/04/23 08:41:31;;;;;;;19.88;17.77;;;;;;;;;;4932520;29;20198;-72
2022/04/23 08:43:58;;;;;;;19.63;17.55;;;;;;;;;;4937175;29;20628;-72
2022/04/23 08:46:27;;;;;;;19.70;16.90;;;;;;;;;;4926997;29;20191;-72
2022/04/23 08:49:03;;;;;;;19.50;16.20;;;;;;;;;;4935174;29;20598;-72
2022/04/23 08:51:34;;;;;;;20.73;18.58;;;;;;;;;;4929529;29;20218;-72
2022/04/23 08:54:03;;;;;;;20.88;18.38;;;;;;;;;;4917914;29;20188;-72
2022/04/23 08:56:30;;;;;;;20.75;16.35;;;;;;;;;;4934091;29;20662;-72
2022/04/23 08:58:58;;;;;;;22.35;19.95;;;;;;;;;;4942975;29;20208;-72
2022/04/23 09:01:25;;;;;;;20.80;18.17;;;;;;;;;;4930211;29;20195;-72
2022/04/23 09:03:52;;;;;;;19.50;17.42;;;;;;;;;;4934825;29;20230;-73
2022/04/23 09:06:20;;;;;;;21.25;18.65;;;;;;;;;;4932905;29;20199;-72
2022/04/23 09:09:06;;;;;;;17.70;16.10;;;;;;;;;;4936739;29;20226;-72
2022/04/23 09:11:36;;;;;;;24.25;17.85;;;;;;;;;;4934892;29;20199;-72
2022/04/23 09:14:04;;;;;;;19.08;17.13;;;;;;;;;;4926796;29;20664;-72
2022/04/23 09:24:47;;;;;;;20.42;18.13;;;;;;;;;;4940359;29;20223;-72
2022/04/23 09:27:14;;;;;;;18.65;16.75;;;;;;;;;;4933837;29;20200;-72
2022/04/23 09:29:42;;;;;;;22.23;16.50;;;;;;;;;;4923058;29;20235;-72
2022/04/23 09:32:10;;;;;;;20.38;18.10;;;;;;;;;;4926927;29;20204;-72
2022/04/23 09:34:38;;;;;;;22.48;17.73;;;;;;;;;;4929133;29;20203;-72
2022/04/23 09:37:08;;;;;;;19.67;17.23;;;;;;;;;;4925734;29;20202;-71
2022/04/23 09:39:38;;;;;;;21.63;17.58;;;;;;;;;;4932721;29;20244;-71
2022/04/23 09:42:12;;;;;;;17.45;15.60;;;;;;;;;;4933316;29;20194;-72
2022/04/23 09:44:39;;;;;;;17.65;15.82;;;;;;;;;;4932418;29;20339;-72
2022/04/23 09:47:06;;;;;;;20.92;17.92;;;;;;;;;;4930760;29;20202;-72
2022/04/23 09:49:34;;;;;;;20.77;16.30;;;;;;;;;;4934831;29;20550;-71
2022/04/23 09:52:01;;;;;;;18.40;15.70;;;;;;;;;;4932626;29;20195;-71
2022/04/23 09:54:31;;;;;;;19.88;16.77;;;;;;;;;;4929490;29;20195;-70
2022/04/23 09:56:58;;;;;;;17.45;15.57;;;;;;;;;;4926088;29;20226;-69
2022/04/23 09:59:25;;;;;;;18.95;16.98;;;;;;;;;;4925031;29;20215;-70
2022/04/23 10:01:53;;;;;;;22.67;16.60;;;;;;;;;;4930331;29;20222;-70
2022/04/23 10:04:23;;;;;;;21.17;18.65;;;;;;;;;;4936811;29;20266;-70
2022/04/23 10:06:51;;;;;;;19.23;15.90;;;;;;;;;;4928265;29;20336;-70
2022/04/23 10:09:21;;;;;;;25.80;17.83;;;;;;;;;;4937430;29;20244;-69
2022/04/23 10:11:51;;;;;;;19.17;16.67;;;;;;;;;;4938089;29;20218;-70
2022/04/23 10:14:22;;;;;;;18.83;16.02;;;;;;;;;;4926926;29;20294;-69
2022/04/23 10:16:50;;;;;;;21.60;17.15;;;;;;;;;;4919386;29;21668;-69
2022/04/23 10:19:17;;;;;;;20.13;17.45;;;;;;;;;;4927551;29;20293;-69
2022/04/23 10:21:48;;;;;;;19.83;17.60;;;;;;;;;;4923968;29;20206;-70
2022/04/23 10:24:16;;;;;;;22.25;16.40;;;;;;;;;;4939882;29;20191;-68
2022/04/23 10:26:45;;;;;;;19.60;17.00;;;;;;;;;;4944155;29;20202;-70
2022/04/23 10:29:15;;;;;;;20.65;14.93;;;;;;;;;;4937579;29;20258;-70
2022/04/23 10:31:42;;;;;;;16.73;15.02;;;;;;;;;;4942314;29;20235;-70
2022/04/23 10:34:24;;;;;;;19.65;17.55;;;;;;;;;;4934922;29;20202;-70
2022/04/23 10:37:14;;;;;;;21.35;18.10;;;;;;;;;;4935063;29;20281;-69
2022/04/23 10:39:42;;;;;;;19.90;17.80;;;;;;;;;;4931904;29;20227;-70
2022/04/23 10:42:09;;;;;;;19.33;17.33;;;;;;;;;;4930357;29;20217;-71
2022/04/23 10:44:37;;;;;;;19.05;16.95;;;;;;;;;;4924111;29;20615;-70
2022/04/23 10:47:11;;;;;;;18.95;16.73;;;;;;;;;;4934094;29;20195;-70
2022/04/23 10:49:39;;;;;;;20.48;17.50;;;;;;;;;;4930364;29;20227;-70
2022/04/23 10:52:06;;;;;;;20.00;18.00;;;;;;;;;;4923127;29;20789;-70
2022/04/23 10:54:48;;;;;;;20.33;17.45;;;;;;;;;;4948574;29;20460;-70
2022/04/23 10:57:15;;;;;;;19.88;17.05;;;;;;;;;;4928046;29;20218;-70
2022/04/23 10:59:46;;;;;;;20.13;17.40;;;;;;;;;;4928243;29;20607;-70
2022/04/23 11:02:14;;;;;;;18.83;16.67;;;;;;;;;;4937464;29;20195;-70
2022/04/23 11:13:25;;;;;;;21.15;17.48;;;;;;;;;;4924206;29;20249;-70
2022/04/23 11:16:13;;;;;;;18.00;16.20;;;;;;;;;;4916606;29;20270;-70
2022/04/23 11:18:41;;;;;;;19.40;17.25;;;;;;;;;;4936804;29;20215;-70
2022/04/23 11:21:11;;;;;;;17.15;15.25;;;;;;;;;;4945101;29;20661;-70
2022/04/23 11:23:42;;;;;;;19.20;17.00;;;;;;;;;;4945345;29;20202;-70
2022/04/23 11:26:11;;;;;;;19.95;16.92;;;;;;;;;;4942039;29;20254;-70
2022/04/23 11:28:39;;;;;;;17.88;14.93;;;;;;;;;;4928410;29;20279;-70
2022/04/23 11:31:14;;;;;;;19.80;17.70;;;;;;;;;;4940995;29;20198;-70
2022/04/23 11:33:51;;;;;;;19.95;17.42;;;;;;;;;;4934686;29;20203;-70
2022/04/23 11:36:18;;;;;;;22.08;19.60;;;;;;;;;;4940262;29;20199;-70
2022/04/23 11:38:45;;;;;;;18.67;16.67;;;;;;;;;;4941836;28;20211;-70
2022/04/23 11:41:12;;;;;;;17.90;16.00;;;;;;;;;;4949103;29;20198;-70
2022/04/23 11:43:39;;;;;;;19.70;17.33;;;;;;;;;;4947586;29;20202;-71
2022/04/23 11:46:08;;;;;;;18.67;15.32;;;;;;;;;;4936963;29;20198;-70
2022/04/23 11:48:43;;;;;;;21.83;17.10;;;;;;;;;;4939892;29;20714;-70
2022/04/23 11:51:12;;;;;;;17.92;16.13;;;;;;;;;;4932791;29;20194;-70
2022/04/23 11:53:54;;;;;;;17.08;14.82;;;;;;;;;;4940668;29;20729;-70
2022/04/23 11:56:22;;;;;;;19.25;16.05;;;;;;;;;;4933715;29;20191;-70
2022/04/23 11:58:49;;;;;;;17.60;15.35;;;;;;;;;;4942361;29;20206;-70
2022/04/23 12:01:16;;;;;;;15.73;13.95;;;;;;;;;;4931954;29;20214;-70
2022/04/23 12:03:50;;;;;;;24.48;16.48;;;;;;;;;;4941477;29;20195;-70
2022/04/23 12:06:17;;;;;;;17.73;15.77;;;;;;;;;;4933026;29;20195;-70
2022/04/23 12:08:44;;;;;;;17.60;15.90;;;;;;;;;;4942080;29;20222;-71
2022/04/23 12:11:21;;;;;;;15.98;14.25;;;;;;;;;;4947228;29;20202;-70
2022/04/23 12:13:48;;;;;;;16.15;14.50;;;;;;;;;;4930323;29;20435;-70
2022/04/23 12:16:17;;;;;;;15.05;12.80;;;;;;;;;;4937450;29;20194;-70
2022/04/23 12:18:44;;;;;;;15.38;13.95;;;;;;;;;;4932720;29;20207;-70
2022/04/23 12:21:13;;;;;;;16.40;14.70;;;;;;;;;;4940009;29;20217;-70
2022/04/23 12:23:43;;;;;;;15.43;12.93;;;;;;;;;;4942152;28;20199;-72
2022/04/23 12:26:12;;;;;;;14.52;13.02;;;;;;;;;;4950030;29;20233;-72
2022/04/23 12:42:30;;;;;;;14.20;12.15;;;;;;;;;;4936809;29;20215;-71
2022/04/23 12:44:57;;;;;;;14.48;12.95;;;;;;;;;;4940221;29;20221;-71
2022/04/23 12:47:29;;;;;;;12.85;11.38;;;;;;;;;;4950776;29;20198;-71
2022/04/23 12:49:58;;;;;;;13.48;12.23;;;;;;;;;;4944230;29;20227;-71
2022/04/23 12:52:27;;;;;;;12.75;11.35;;;;;;;;;;4948284;29;20301;-71
2022/04/23 12:55:14;;;;;;;12.93;10.90;;;;;;;;;;4935630;29;20203;-71
2022/04/23 12:57:41;;;;;;;13.20;11.82;;;;;;;;;;4949061;29;20200;-70
2022/04/23 13:00:11;;;;;;;13.00;11.70;;;;;;;;;;4944200;29;20209;-71
2022/04/23 13:02:38;;;;;;;12.85;11.60;;;;;;;;;;4942922;29;20285;-70
2022/04/23 13:05:06;;;;;;;11.30;10.20;;;;;;;;;;4932227;29;20207;-71
2022/04/23 13:10:20;;;;;;;11.45;10.25;;;;;;;;;;4939733;29;20230;-71
2022/04/23 13:12:47;;;;;;;11.68;10.48;;;;;;;;;;4938833;29;20203;-71
2022/04/23 13:15:15;;;;;;;11.68;10.50;;;;;;;;;;4952611;29;20208;-71
2022/04/23 13:17:43;;;;;;;10.90;9.80;;;;;;;;;;4934954;29;20249;-70
2022/04/23 13:20:10;;;;;;;11.35;10.25;;;;;;;;;;4931613;29;20575;-71
2022/04/23 13:22:41;;;;;;;12.52;11.38;;;;;;;;;;4916558;29;20281;-71
2022/04/23 13:25:09;;;;;;;12.50;11.23;;;;;;;;;;4929472;29;20643;-70
2022/04/23 13:27:36;;;;;;;11.88;10.68;;;;;;;;;;4950056;29;20202;-70
2022/04/23 13:30:04;;;;;;;9.98;9.10;;;;;;;;;;4921624;29;20227;-71
2022/04/23 13:32:32;;;;;;;11.52;10.32;;;;;;;;;;4939884;29;20692;-71
2022/04/23 13:34:59;;;;;;;10.52;9.27;;;;;;;;;;4939667;29;20196;-70
2022/04/23 13:37:27;;;;;;;12.60;11.30;;;;;;;;;;4935851;29;20555;-70
2022/04/23 13:39:56;;;;;;;11.27;9.88;;;;;;;;;;4944682;29;20223;-71
2022/04/23 13:42:26;;;;;;;12.02;10.65;;;;;;;;;;4943003;29;20194;-70
2022/04/23 13:44:53;;;;;;;11.18;9.85;;;;;;;;;;4938873;29;20214;-70
2022/04/23 13:47:21;;;;;;;11.63;10.40;;;;;;;;;;4945283;29;20198;-70
2022/04/23 13:49:49;;;;;;;9.95;9.05;;;;;;;;;;4937094;29;20220;-70
2022/04/23 13:52:16;;;;;;;10.98;9.95;;;;;;;;;;4951950;29;20222;-70
2022/04/23 13:54:43;;;;;;;10.70;9.70;;;;;;;;;;4943417;29;20202;-70
2022/04/23 13:57:11;;;;;;;10.43;9.30;;;;;;;;;;4939475;29;20204;-71
2022/04/23 13:59:39;;;;;;;10.73;9.73;;;;;;;;;;4948547;29;20194;-71
2022/04/23 14:10:35;;;;;;;12.60;9.60;;;;;;;;;;4930660;29;20337;-70
2022/04/23 14:13:03;;;;;;;9.32;8.35;;;;;;;;;;4952669;29;20194;-71
2022/04/23 14:15:30;;;;;;;10.07;9.18;;;;;;;;;;4926052;29;20682;-70
2022/04/23 14:17:59;;;;;;;8.73;7.88;;;;;;;;;;4933599;29;20234;-70
2022/04/23 14:20:26;;;;;;;9.48;8.68;;;;;;;;;;4940656;29;20221;-71
2022/04/23 14:22:53;;;;;;;10.02;8.70;;;;;;;;;;4943083;29;20203;-71
2022/04/23 14:25:20;;;;;;;9.60;8.02;;;;;;;;;;4938866;29;20678;-70
2022/04/23 14:27:48;;;;;;;9.57;8.68;;;;;;;;;;4932936;29;20672;-71
2022/04/23 14:30:16;;;;;;;8.98;8.18;;;;;;;;;;4940169;29;20230;-70
2022/04/23 14:32:44;;;;;;;10.43;9.15;;;;;;;;;;4950920;29;20199;-70
2022/04/23 14:35:11;;;;;;;9.93;9.07;;;;;;;;;;4941239;29;20309;-70
2022/04/23 14:37:38;;;;;;;7.85;7.15;;;;;;;;;;4941530;29;20221;-71
2022/04/23 14:40:05;;;;;;;8.50;7.70;;;;;;;;;;4939004;28;20222;-71
2022/04/23 14:42:33;;;;;;;8.80;7.97;;;;;;;;;;4941471;29;20200;-71
2022/04/23 14:45:00;;;;;;;8.63;7.80;;;;;;;;;;4927097;29;20561;-71
2022/04/23 14:47:28;;;;;;;8.05;7.35;;;;;;;;;;4944746;28;20198;-70
2022/04/23 14:49:56;;;;;;;9.15;6.80;;;;;;;;;;4939782;29;20223;-71
2022/04/23 14:55:09;;;;;;;8.27;7.47;;;;;;;;;;4936665;29;20202;-71
2022/04/23 14:57:36;;;;;;;7.28;6.68;;;;;;;;;;4934867;29;20287;-71
2022/04/23 15:00:04;;;;;;;6.80;6.15;;;;;;;;;;4934264;29;20204;-70
2022/04/23 15:02:32;;;;;;;6.13;5.63;;;;;;;;;;4934197;29;20655;-70
2022/04/23 15:04:59;;;;;;;6.95;6.35;;;;;;;;;;4932243;29;20542;-71
2022/04/23 15:07:27;;;;;;;6.90;6.20;;;;;;;;;;4945773;29;20677;-70
2022/04/23 15:09:54;;;;;;;5.80;5.22;;;;;;;;;;4935081;29;20507;-71
2022/04/23 15:12:21;;;;;;;6.18;5.57;;;;;;;;;;4944977;29;20198;-70
2022/04/23 15:14:48;;;;;;;5.55;4.80;;;;;;;;;;4924716;29;20714;-70
2022/04/23 15:17:15;;;;;;;5.00;4.45;;;;;;;;;;4935199;29;20192;-71